Terminal Aerodrome Forecast
Issued by NWS Jacksonville, FL

Home | Current Version | Previous Version | Text Only | Print | Product List | Glossary On
Versions: 1 2 3 4 5 6 7 8 9 10 11 12 13 14 15 16 17 18 19 20 21 22 23 24 25 26 27
760
FTUS42 KJAX 182329
TAFGNV
TAF
KGNV 182329Z 1900/1924 27005KT P6SM FEW035 OVC120
     FM190300 VRB03KT 5SM BR BKN250
     FM190500 VRB03KT 1SM BR SCT003 SCT250
     FM190800 00000KT 1/2SM FG BKN002
     FM191400 VRB02KT 2SM BR BKN005
     FM191530 06005KT P6SM SCT010=

USA.gov is the U.S. government's official web portal to all federal, state and local government web resources and services.